Time;durP1;ratioP1;P1;durP2;ratioP2;P2;SDS_P1;SDS_P2;PMS_P1;PMS_P2;Temp;Humidity;BMP_temperature;BMP_pressure;BME280_temperature;BME280_humidity;BME280_pressure;Samples;Min_cycle;Max_cycle;Signal;HPM_P1;HPM_P2
2023/03/30 00:00:52;;;;;;;0.80;0.80;;;;;;;;;;5076814;28;20212;-61
2023/03/30 00:03:21;;;;;;;1.02;0.93;;;;;;;;;;5076972;28;20204;-61
2023/03/30 00:05:51;;;;;;;1.27;1.08;;;;;;;;;;5076843;28;20215;-61
2023/03/30 00:08:19;;;;;;;1.13;1.00;;;;;;;;;;5076638;28;20204;-60
2023/03/30 00:10:47;;;;;;;1.00;0.90;;;;;;;;;;5077511;28;20216;-60
2023/03/30 00:13:15;;;;;;;1.13;1.02;;;;;;;;;;5077064;28;20212;-60
2023/03/30 00:15:43;;;;;;;0.85;0.85;;;;;;;;;;5076978;28;20212;-60
2023/03/30 00:18:10;;;;;;;1.95;0.90;;;;;;;;;;5077256;28;20204;-60
2023/03/30 00:20:41;;;;;;;0.80;0.80;;;;;;;;;;5076916;28;20227;-60
2023/03/30 00:23:10;;;;;;;1.50;0.85;;;;;;;;;;5077266;28;20204;-62
2023/03/30 00:25:38;;;;;;;0.93;0.85;;;;;;;;;;5077072;28;20260;-61
2023/03/30 00:28:05;;;;;;;1.10;1.00;;;;;;;;;;5077329;28;20212;-61
2023/03/30 00:30:33;;;;;;;0.80;0.80;;;;;;;;;;5077027;28;20265;-60
2023/03/30 00:33:00;;;;;;;0.80;0.80;;;;;;;;;;5077133;28;20269;-60
2023/03/30 00:35:29;;;;;;;1.15;1.05;;;;;;;;;;5077185;28;20215;-60
2023/03/30 00:37:56;;;;;;;0.82;0.82;;;;;;;;;;5076620;28;20298;-60
2023/03/30 00:40:25;;;;;;;1.17;1.00;;;;;;;;;;5076201;28;20698;-60
2023/03/30 00:42:58;;;;;;;1.05;0.95;;;;;;;;;;5076221;28;20204;-60
2023/03/30 00:45:26;;;;;;;1.15;0.90;;;;;;;;;;5077057;28;20204;-60
2023/03/30 00:47:59;;;;;;;1.27;0.90;;;;;;;;;;5076895;28;20215;-62
2023/03/30 00:50:33;;;;;;;0.90;0.88;;;;;;;;;;5081154;28;20201;-61
2023/03/30 00:53:02;;;;;;;1.23;0.80;;;;;;;;;;5080777;28;20207;-60
2023/03/30 00:55:32;;;;;;;1.10;1.00;;;;;;;;;;5080434;28;20281;-61
2023/03/30 00:58:00;;;;;;;0.88;0.88;;;;;;;;;;5080608;28;20220;-62
2023/03/30 01:00:27;;;;;;;1.00;0.90;;;;;;;;;;5080184;28;20289;-62
2023/03/30 01:02:58;;;;;;;1.17;0.93;;;;;;;;;;5080334;28;20270;-61
2023/03/30 01:05:27;;;;;;;0.93;0.93;;;;;;;;;;5081050;28;20539;-61
2023/03/30 01:07:56;;;;;;;0.60;0.60;;;;;;;;;;5080780;28;20204;-61
2023/03/30 01:10:24;;;;;;;0.80;0.70;;;;;;;;;;5080808;28;20298;-61
2023/03/30 01:12:54;;;;;;;1.02;0.93;;;;;;;;;;5080759;28;20204;-61
2023/03/30 01:15:22;;;;;;;0.90;0.90;;;;;;;;;;5080520;28;20281;-61
2023/03/30 01:18:08;;;;;;;0.60;0.60;;;;;;;;;;5080586;28;20216;-62
2023/03/30 01:20:53;;;;;;;1.10;0.98;;;;;;;;;;5080153;28;20234;-61
2023/03/30 01:23:39;;;;;;;0.82;0.80;;;;;;;;;;5080170;28;20220;-60
2023/03/30 01:26:20;;;;;;;0.73;0.73;;;;;;;;;;5040054;28;20265;-60
2023/03/30 01:28:50;;;;;;;0.63;0.63;;;;;;;;;;5080273;28;20212;-60
2023/03/30 01:31:36;;;;;;;1.05;0.90;;;;;;;;;;5079742;28;20850;-60
2023/03/30 01:34:17;;;;;;;0.73;0.73;;;;;;;;;;5066717;28;20211;-61
2023/03/30 01:37:02;;;;;;;1.08;0.82;;;;;;;;;;5079767;28;20588;-61
2023/03/30 01:39:43;;;;;;;0.75;0.75;;;;;;;;;;5079439;28;20652;-62
2023/03/30 01:42:16;;;;;;;0.80;0.70;;;;;;;;;;5079310;28;20204;-61
2023/03/30 01:44:49;;;;;;;0.60;0.60;;;;;;;;;;5079871;28;20270;-61
2023/03/30 01:47:20;;;;;;;0.88;0.88;;;;;;;;;;5079370;28;20537;-61
2023/03/30 01:49:53;;;;;;;0.80;0.80;;;;;;;;;;5079350;28;20247;-62
2023/03/30 01:52:23;;;;;;;1.00;0.90;;;;;;;;;;5079246;28;20212;-61
2023/03/30 01:54:55;;;;;;;0.60;0.60;;;;;;;;;;5078390;28;20751;-61
2023/03/30 01:57:26;;;;;;;0.80;0.77;;;;;;;;;;5078188;28;20232;-61
2023/03/30 01:59:56;;;;;;;0.90;0.70;;;;;;;;;;5077933;28;20228;-61
2023/03/30 02:02:25;;;;;;;0.80;0.75;;;;;;;;;;5078384;28;20596;-61
2023/03/30 02:04:53;;;;;;;0.80;0.80;;;;;;;;;;5079659;28;20486;-61
2023/03/30 02:07:23;;;;;;;0.85;0.57;;;;;;;;;;5079058;28;20266;-62
2023/03/30 02:09:54;;;;;;;0.80;0.80;;;;;;;;;;5079369;28;20215;-61
2023/03/30 02:12:22;;;;;;;0.82;0.82;;;;;;;;;;5078695;28;20616;-61
2023/03/30 02:14:50;;;;;;;0.50;0.50;;;;;;;;;;5079400;28;20212;-62
2023/03/30 02:17:18;;;;;;;0.70;0.70;;;;;;;;;;5078810;28;20265;-61
2023/03/30 02:19:46;;;;;;;1.10;1.00;;;;;;;;;;5077692;28;20220;-60
2023/03/30 02:22:15;;;;;;;0.90;0.90;;;;;;;;;;5078389;28;20702;-60
2023/03/30 02:24:43;;;;;;;0.82;0.80;;;;;;;;;;5078058;28;20214;-60
2023/03/30 02:27:13;;;;;;;0.90;0.80;;;;;;;;;;5078849;28;20274;-60
2023/03/30 02:29:42;;;;;;;1.00;0.80;;;;;;;;;;5078994;28;20216;-60
2023/03/30 02:32:15;;;;;;;0.90;0.90;;;;;;;;;;5079011;28;20212;-60
2023/03/30 02:34:50;;;;;;;0.90;0.90;;;;;;;;;;5078772;28;20204;-60
2023/03/30 02:37:24;;;;;;;0.98;0.93;;;;;;;;;;5078467;28;20580;-61
2023/03/30 02:39:57;;;;;;;1.05;0.75;;;;;;;;;;5078388;28;20227;-61
2023/03/30 02:42:34;;;;;;;0.60;0.60;;;;;;;;;;5078475;28;20247;-60
2023/03/30 02:45:07;;;;;;;0.82;0.82;;;;;;;;;;5078331;28;20254;-60
2023/03/30 02:47:38;;;;;;;1.00;0.90;;;;;;;;;;5078223;28;20205;-60
2023/03/30 02:50:08;;;;;;;0.95;0.90;;;;;;;;;;5077678;28;20200;-60
2023/03/30 02:52:40;;;;;;;0.80;0.80;;;;;;;;;;5077066;28;20211;-60
2023/03/30 02:55:12;;;;;;;0.80;0.80;;;;;;;;;;5077173;28;20265;-60
2023/03/30 02:57:46;;;;;;;0.80;0.80;;;;;;;;;;5077559;28;20243;-60
2023/03/30 03:00:17;;;;;;;1.10;0.98;;;;;;;;;;5077219;28;20228;-60
2023/03/30 03:02:49;;;;;;;0.98;0.90;;;;;;;;;;5077530;28;20244;-60
2023/03/30 03:05:17;;;;;;;1.15;1.05;;;;;;;;;;5076853;28;20258;-60
2023/03/30 03:07:46;;;;;;;0.90;0.90;;;;;;;;;;5077368;28;20200;-60
2023/03/30 03:10:14;;;;;;;0.70;0.70;;;;;;;;;;5078173;28;20201;-60
2023/03/30 03:12:44;;;;;;;1.10;1.00;;;;;;;;;;5076871;28;20275;-60
2023/03/30 03:15:12;;;;;;;0.80;0.80;;;;;;;;;;5077003;28;20239;-60
2023/03/30 03:17:40;;;;;;;0.80;0.80;;;;;;;;;;5077116;28;20203;-60
2023/03/30 03:20:10;;;;;;;1.05;1.05;;;;;;;;;;5077372;28;20267;-60
2023/03/30 03:22:37;;;;;;;0.70;0.70;;;;;;;;;;5077832;28;20282;-60
2023/03/30 03:25:05;;;;;;;1.05;1.02;;;;;;;;;;5077607;28;20254;-60
2023/03/30 03:27:33;;;;;;;0.70;0.70;;;;;;;;;;5077192;28;20205;-60
2023/03/30 03:30:01;;;;;;;0.68;0.68;;;;;;;;;;5077877;28;20454;-60
2023/03/30 03:32:29;;;;;;;1.20;1.10;;;;;;;;;;5077563;28;20236;-60
2023/03/30 03:34:57;;;;;;;0.80;0.80;;;;;;;;;;5077282;28;20212;-60
2023/03/30 03:37:24;;;;;;;1.15;1.05;;;;;;;;;;5077083;28;20232;-60
2023/03/30 03:39:51;;;;;;;0.90;0.90;;;;;;;;;;5077330;28;20260;-60
2023/03/30 03:42:19;;;;;;;1.00;0.90;;;;;;;;;;5077323;28;20247;-60
2023/03/30 03:44:47;;;;;;;0.80;0.80;;;;;;;;;;5077437;28;20254;-60
2023/03/30 03:47:17;;;;;;;1.02;1.00;;;;;;;;;;5077433;28;20752;-60
2023/03/30 03:49:44;;;;;;;1.25;0.80;;;;;;;;;;5076972;28;20204;-60
2023/03/30 03:52:12;;;;;;;0.90;0.80;;;;;;;;;;5076091;28;20236;-60
2023/03/30 03:54:39;;;;;;;0.80;0.80;;;;;;;;;;5076307;28;20204;-60
2023/03/30 03:57:07;;;;;;;0.70;0.70;;;;;;;;;;5075654;28;20232;-60
2023/03/30 03:59:35;;;;;;;1.00;1.00;;;;;;;;;;5058515;28;20295;-60
2023/03/30 04:02:04;;;;;;;0.82;0.82;;;;;;;;;;5075839;28;20204;-60
2023/03/30 04:04:32;;;;;;;1.17;0.70;;;;;;;;;;5075945;28;20213;-60
2023/03/30 04:07:00;;;;;;;1.05;0.90;;;;;;;;;;5076554;28;20208;-60
2023/03/30 04:09:27;;;;;;;0.90;0.90;;;;;;;;;;5075554;28;20285;-60
2023/03/30 04:11:54;;;;;;;0.85;0.80;;;;;;;;;;5076398;28;20201;-60
2023/03/30 04:14:22;;;;;;;0.70;0.70;;;;;;;;;;5075667;28;20196;-60
2023/03/30 04:16:50;;;;;;;0.90;0.90;;;;;;;;;;5075852;28;20506;-60
2023/03/30 04:19:17;;;;;;;0.90;0.90;;;;;;;;;;5076336;28;20204;-60
2023/03/30 04:21:46;;;;;;;0.82;0.82;;;;;;;;;;5075523;28;20237;-60
2023/03/30 04:24:14;;;;;;;1.08;0.90;;;;;;;;;;5074904;28;20231;-60
2023/03/30 04:26:44;;;;;;;1.83;1.10;;;;;;;;;;5076322;28;20533;-61
2023/03/30 04:29:11;;;;;;;0.80;0.80;;;;;;;;;;5075677;28;20212;-60
2023/03/30 04:31:41;;;;;;;0.90;0.90;;;;;;;;;;5076089;28;20722;-60
2023/03/30 04:34:08;;;;;;;0.80;0.80;;;;;;;;;;5075564;28;20332;-60
2023/03/30 04:36:36;;;;;;;0.80;0.77;;;;;;;;;;5075994;28;20254;-60
2023/03/30 04:39:05;;;;;;;0.80;0.80;;;;;;;;;;5075477;28;20300;-60
2023/03/30 04:41:33;;;;;;;0.88;0.88;;;;;;;;;;5074639;28;20235;-60
2023/03/30 04:44:02;;;;;;;0.77;0.70;;;;;;;;;;5074913;28;20204;-60
2023/03/30 04:46:29;;;;;;;0.68;0.68;;;;;;;;;;5074942;28;20306;-60
2023/03/30 04:48:56;;;;;;;0.85;0.85;;;;;;;;;;5074837;28;20204;-60
2023/03/30 04:51:24;;;;;;;0.90;0.90;;;;;;;;;;5074444;28;20200;-61
2023/03/30 04:53:52;;;;;;;0.82;0.82;;;;;;;;;;5074851;28;20196;-61
2023/03/30 04:56:20;;;;;;;0.85;0.85;;;;;;;;;;5074369;28;20243;-61
2023/03/30 04:58:48;;;;;;;0.70;0.70;;;;;;;;;;5074422;28;20226;-61
2023/03/30 05:01:15;;;;;;;0.90;0.70;;;;;;;;;;5074190;28;20227;-61
2023/03/30 05:03:42;;;;;;;0.68;0.68;;;;;;;;;;5074342;28;20492;-61
2023/03/30 05:06:10;;;;;;;0.82;0.80;;;;;;;;;;5072534;28;20785;-61
2023/03/30 05:08:37;;;;;;;0.95;0.75;;;;;;;;;;5072458;28;20212;-60
2023/03/30 05:11:05;;;;;;;0.70;0.70;;;;;;;;;;5071960;28;20204;-60
2023/03/30 05:13:34;;;;;;;0.70;0.70;;;;;;;;;;5072475;28;20808;-60
2023/03/30 05:16:01;;;;;;;0.73;0.73;;;;;;;;;;5072589;28;20211;-60
2023/03/30 05:18:28;;;;;;;0.80;0.70;;;;;;;;;;5072293;28;20226;-60
2023/03/30 05:20:58;;;;;;;1.00;0.90;;;;;;;;;;5072604;28;20224;-60
2023/03/30 05:23:25;;;;;;;0.70;0.70;;;;;;;;;;5073054;28;20232;-60
2023/03/30 05:25:54;;;;;;;0.70;0.70;;;;;;;;;;5072457;28;20580;-60
2023/03/30 05:28:21;;;;;;;0.90;0.90;;;;;;;;;;5073165;28;20362;-60
2023/03/30 05:30:55;;;;;;;0.80;0.80;;;;;;;;;;5072459;28;20197;-60
2023/03/30 05:33:23;;;;;;;0.65;0.60;;;;;;;;;;5072766;28;20197;-61
2023/03/30 05:35:50;;;;;;;0.98;0.80;;;;;;;;;;5073962;28;20216;-61
2023/03/30 05:38:17;;;;;;;0.70;0.70;;;;;;;;;;5077120;28;20212;-61
2023/03/30 05:40:45;;;;;;;0.90;0.80;;;;;;;;;;5076563;28;20216;-61
2023/03/30 05:43:12;;;;;;;0.70;0.70;;;;;;;;;;5077011;28;20217;-62
2023/03/30 05:45:42;;;;;;;1.20;0.60;;;;;;;;;;5076665;28;20215;-62
2023/03/30 05:48:11;;;;;;;1.13;1.02;;;;;;;;;;5076167;28;20196;-60
2023/03/30 05:50:38;;;;;;;1.45;0.70;;;;;;;;;;5076150;28;20201;-62
2023/03/30 05:53:06;;;;;;;1.00;0.90;;;;;;;;;;5076780;28;20204;-60
2023/03/30 05:55:33;;;;;;;0.70;0.70;;;;;;;;;;5077267;28;20213;-60
2023/03/30 05:58:01;;;;;;;0.82;0.82;;;;;;;;;;5077287;28;20212;-60
2023/03/30 06:00:32;;;;;;;1.95;0.90;;;;;;;;;;5077188;28;20235;-60
2023/03/30 06:02:59;;;;;;;0.90;0.73;;;;;;;;;;5076528;28;20291;-62
2023/03/30 06:05:28;;;;;;;0.95;0.93;;;;;;;;;;5077556;28;20216;-61
2023/03/30 06:07:55;;;;;;;0.85;0.85;;;;;;;;;;5076868;28;20208;-61
2023/03/30 06:10:22;;;;;;;1.98;0.90;;;;;;;;;;5077506;28;20219;-61
2023/03/30 06:12:49;;;;;;;1.38;0.77;;;;;;;;;;5076424;28;20299;-61
2023/03/30 06:15:17;;;;;;;1.70;0.70;;;;;;;;;;5076391;28;20215;-61
2023/03/30 06:17:45;;;;;;;2.25;0.90;;;;;;;;;;5076454;28;20265;-61
2023/03/30 06:20:13;;;;;;;3.28;0.90;;;;;;;;;;5076988;28;20602;-62
2023/03/30 06:22:42;;;;;;;0.98;0.90;;;;;;;;;;5076775;28;20267;-60
2023/03/30 06:25:09;;;;;;;0.98;0.80;;;;;;;;;;5076628;28;20208;-60
2023/03/30 06:27:37;;;;;;;2.85;0.95;;;;;;;;;;5077007;28;20227;-60
2023/03/30 06:30:04;;;;;;;0.90;0.90;;;;;;;;;;5077641;28;20204;-62
2023/03/30 06:32:32;;;;;;;0.80;0.80;;;;;;;;;;5076703;28;20200;-62
2023/03/30 06:34:59;;;;;;;1.42;0.90;;;;;;;;;;5076447;28;20231;-60
2023/03/30 06:37:27;;;;;;;0.93;0.90;;;;;;;;;;5077199;28;20523;-60
2023/03/30 06:39:56;;;;;;;1.85;1.13;;;;;;;;;;5076605;28;20204;-60
2023/03/30 06:42:23;;;;;;;1.17;0.90;;;;;;;;;;5076437;28;20235;-62
2023/03/30 06:44:50;;;;;;;1.17;0.88;;;;;;;;;;5076741;28;20230;-62
2023/03/30 06:47:18;;;;;;;2.47;0.90;;;;;;;;;;5075956;28;20196;-62
2023/03/30 06:49:46;;;;;;;1.67;1.02;;;;;;;;;;5075716;28;20239;-60
2023/03/30 06:52:14;;;;;;;1.98;1.10;;;;;;;;;;5075805;28;20196;-61
2023/03/30 06:54:41;;;;;;;1.90;1.00;;;;;;;;;;5075903;28;20204;-61
2023/03/30 06:57:10;;;;;;;1.13;1.02;;;;;;;;;;5076600;28;20263;-61
2023/03/30 06:59:37;;;;;;;1.10;1.00;;;;;;;;;;5076893;28;20216;-62
2023/03/30 07:02:05;;;;;;;1.15;1.02;;;;;;;;;;5075581;28;20224;-60
2023/03/30 07:04:32;;;;;;;1.20;1.10;;;;;;;;;;5076600;28;20204;-60
2023/03/30 07:06:59;;;;;;;1.02;0.90;;;;;;;;;;5075842;28;20216;-60
2023/03/30 07:09:27;;;;;;;2.35;1.00;;;;;;;;;;5076309;28;20212;-62
2023/03/30 07:11:54;;;;;;;1.90;1.10;;;;;;;;;;5076005;28;20676;-60
2023/03/30 07:14:23;;;;;;;2.38;1.30;;;;;;;;;;5076228;28;20204;-62
2023/03/30 07:16:51;;;;;;;1.08;0.80;;;;;;;;;;5075359;28;20338;-62
2023/03/30 07:19:19;;;;;;;1.15;0.88;;;;;;;;;;5076605;28;20211;-61
2023/03/30 07:21:46;;;;;;;1.65;1.30;;;;;;;;;;5075987;28;20220;-61
2023/03/30 07:24:14;;;;;;;1.58;1.10;;;;;;;;;;5076032;28;20209;-61
2023/03/30 07:26:41;;;;;;;1.10;0.90;;;;;;;;;;5075719;28;20196;-61
2023/03/30 07:29:08;;;;;;;1.45;1.15;;;;;;;;;;5075946;28;20208;-61
2023/03/30 07:31:37;;;;;;;0.93;0.93;;;;;;;;;;5076060;28;20240;-61
2023/03/30 07:34:06;;;;;;;1.23;1.13;;;;;;;;;;5074040;28;20216;-61
2023/03/30 07:36:33;;;;;;;1.00;0.90;;;;;;;;;;5074610;28;20234;-61
2023/03/30 07:39:01;;;;;;;2.17;1.30;;;;;;;;;;5075524;28;20215;-61
2023/03/30 07:41:28;;;;;;;1.45;0.88;;;;;;;;;;5075566;28;20290;-61
2023/03/30 07:43:55;;;;;;;1.42;1.10;;;;;;;;;;5075230;28;20208;-61
2023/03/30 07:46:22;;;;;;;0.93;0.80;;;;;;;;;;5074612;28;20218;-61
2023/03/30 07:48:51;;;;;;;0.95;0.90;;;;;;;;;;5074932;28;20650;-61
2023/03/30 07:51:19;;;;;;;1.10;0.95;;;;;;;;;;5074887;28;20207;-61
2023/03/30 07:53:48;;;;;;;1.20;1.10;;;;;;;;;;5074641;28;20204;-61
2023/03/30 07:56:15;;;;;;;1.27;1.17;;;;;;;;;;5073031;28;20231;-61
2023/03/30 07:58:42;;;;;;;1.20;1.00;;;;;;;;;;5073367;28;20208;-62
2023/03/30 08:01:10;;;;;;;1.10;1.00;;;;;;;;;;5073655;28;20315;-61
2023/03/30 08:03:37;;;;;;;1.83;1.10;;;;;;;;;;5074675;28;20204;-61
2023/03/30 08:06:06;;;;;;;1.33;1.00;;;;;;;;;;5074496;28;20196;-61
2023/03/30 08:08:37;;;;;;;1.08;0.98;;;;;;;;;;5075473;28;20208;-62
2023/03/30 08:11:05;;;;;;;1.33;0.95;;;;;;;;;;5075557;28;20232;-61
2023/03/30 08:13:32;;;;;;;1.63;1.20;;;;;;;;;;5074982;28;20262;-61
2023/03/30 08:16:00;;;;;;;1.30;1.05;;;;;;;;;;5074765;28;20547;-61
2023/03/30 08:18:27;;;;;;;1.10;1.00;;;;;;;;;;5075272;28;20548;-61
2023/03/30 08:20:55;;;;;;;2.25;1.17;;;;;;;;;;5074462;28;20204;-61
2023/03/30 08:23:23;;;;;;;1.20;1.10;;;;;;;;;;5073924;28;20204;-61
2023/03/30 08:25:51;;;;;;;1.15;0.88;;;;;;;;;;5075260;28;20223;-62
2023/03/30 08:28:20;;;;;;;1.60;1.20;;;;;;;;;;5074979;28;20205;-61
2023/03/30 08:30:47;;;;;;;1.77;1.35;;;;;;;;;;5074406;28;20310;-61
2023/03/30 08:33:14;;;;;;;2.13;1.10;;;;;;;;;;5074581;28;20556;-61
2023/03/30 08:35:42;;;;;;;2.10;1.20;;;;;;;;;;5074391;28;20212;-61
2023/03/30 08:38:09;;;;;;;1.75;1.30;;;;;;;;;;5074645;28;20231;-61
2023/03/30 08:40:40;;;;;;;2.03;1.30;;;;;;;;;;5074889;28;20200;-61
2023/03/30 08:43:16;;;;;;;2.03;1.50;;;;;;;;;;5074752;28;20662;-61
2023/03/30 08:45:44;;;;;;;1.48;1.20;;;;;;;;;;5075011;28;20261;-61
2023/03/30 08:48:16;;;;;;;1.90;1.15;;;;;;;;;;5074206;28;20235;-61
2023/03/30 08:50:44;;;;;;;2.80;1.30;;;;;;;;;;5074053;28;20283;-61
2023/03/30 08:53:12;;;;;;;1.80;1.60;;;;;;;;;;5074465;28;20208;-61
2023/03/30 08:55:43;;;;;;;2.05;1.45;;;;;;;;;;5073389;28;20234;-61
2023/03/30 08:58:12;;;;;;;1.55;1.35;;;;;;;;;;5074122;28;20662;-60
2023/03/30 09:00:42;;;;;;;1.60;1.25;;;;;;;;;;5074281;28;20215;-60
2023/03/30 09:03:14;;;;;;;1.35;1.25;;;;;;;;;;5074185;28;20220;-60
2023/03/30 09:05:45;;;;;;;1.67;1.30;;;;;;;;;;5074584;28;20269;-61
2023/03/30 09:08:16;;;;;;;2.50;1.20;;;;;;;;;;5074789;28;20240;-60
2023/03/30 09:10:48;;;;;;;1.50;1.10;;;;;;;;;;5076859;28;20196;-60
2023/03/30 09:13:16;;;;;;;1.67;1.13;;;;;;;;;;5078722;28;20635;-60
2023/03/30 09:15:47;;;;;;;1.70;1.23;;;;;;;;;;5078614;28;20205;-61
2023/03/30 09:18:18;;;;;;;1.95;1.40;;;;;;;;;;5078131;28;20212;-61
2023/03/30 09:20:45;;;;;;;2.70;1.40;;;;;;;;;;5077664;28;20208;-60
2023/03/30 09:23:14;;;;;;;2.08;1.38;;;;;;;;;;5078697;28;20235;-60
2023/03/30 09:25:46;;;;;;;2.47;1.40;;;;;;;;;;5077715;28;20214;-60
2023/03/30 09:28:19;;;;;;;1.80;1.40;;;;;;;;;;5077221;28;20197;-61
2023/03/30 09:30:49;;;;;;;1.88;1.23;;;;;;;;;;5076984;28;20212;-61
2023/03/30 09:33:22;;;;;;;2.42;1.40;;;;;;;;;;5077441;28;20208;-61
2023/03/30 09:35:57;;;;;;;1.90;1.20;;;;;;;;;;5077400;28;20274;-61
2023/03/30 09:38:25;;;;;;;2.17;1.35;;;;;;;;;;5077534;28;20222;-61
2023/03/30 09:41:05;;;;;;;3.08;1.30;;;;;;;;;;5078130;28;20231;-61
2023/03/30 09:43:35;;;;;;;2.47;1.30;;;;;;;;;;5078662;28;20227;-61
2023/03/30 09:46:03;;;;;;;2.28;1.17;;;;;;;;;;5077891;28;20228;-61
2023/03/30 09:48:38;;;;;;;2.50;1.30;;;;;;;;;;5077295;28;20238;-61
2023/03/30 09:51:14;;;;;;;2.05;1.42;;;;;;;;;;5077720;28;20711;-61
2023/03/30 09:53:43;;;;;;;2.03;1.20;;;;;;;;;;5077525;28;20200;-61
2023/03/30 09:56:11;;;;;;;1.70;1.30;;;;;;;;;;5076913;28;20616;-61
2023/03/30 09:58:41;;;;;;;2.40;1.67;;;;;;;;;;5077552;28;20204;-61
2023/03/30 10:01:11;;;;;;;2.10;1.25;;;;;;;;;;5077512;28;20204;-61
2023/03/30 10:03:39;;;;;;;1.58;1.27;;;;;;;;;;5077078;28;20228;-61
2023/03/30 10:06:07;;;;;;;1.80;1.25;;;;;;;;;;5077227;28;20196;-61
2023/03/30 10:08:38;;;;;;;1.27;1.15;;;;;;;;;;5076238;28;20674;-61
2023/03/30 10:11:06;;;;;;;2.22;1.50;;;;;;;;;;5076179;28;20475;-61
2023/03/30 10:13:34;;;;;;;2.00;1.40;;;;;;;;;;5076758;28;20672;-61
2023/03/30 10:16:05;;;;;;;1.55;1.40;;;;;;;;;;5076696;28;20591;-61
2023/03/30 10:18:35;;;;;;;1.48;1.38;;;;;;;;;;5076969;28;20204;-63
2023/03/30 10:21:03;;;;;;;2.08;1.17;;;;;;;;;;5075870;28;20204;-61
2023/03/30 10:23:40;;;;;;;1.50;1.10;;;;;;;;;;5076190;28;20247;-61
2023/03/30 10:26:12;;;;;;;1.55;1.23;;;;;;;;;;5075347;28;20673;-61
2023/03/30 10:28:40;;;;;;;2.83;1.30;;;;;;;;;;5075738;28;20197;-61
2023/03/30 10:31:14;;;;;;;1.35;1.08;;;;;;;;;;5076672;28;20204;-62
2023/03/30 10:33:43;;;;;;;2.17;1.13;;;;;;;;;;5075923;28;20195;-61
2023/03/30 10:36:11;;;;;;;1.65;1.20;;;;;;;;;;5076592;28;20200;-61
2023/03/30 10:38:40;;;;;;;1.50;1.40;;;;;;;;;;5076273;28;20235;-61
2023/03/30 10:41:09;;;;;;;1.45;1.25;;;;;;;;;;5075871;28;20200;-61
2023/03/30 10:43:37;;;;;;;2.67;1.27;;;;;;;;;;5074976;28;20665;-61
2023/03/30 10:46:10;;;;;;;1.13;1.02;;;;;;;;;;5076091;28;20200;-61
2023/03/30 10:48:48;;;;;;;1.88;1.17;;;;;;;;;;5076185;28;20248;-61
2023/03/30 10:51:22;;;;;;;1.55;1.25;;;;;;;;;;5075551;28;20261;-61
2023/03/30 10:53:53;;;;;;;1.73;1.33;;;;;;;;;;5075499;28;20294;-61
2023/03/30 10:56:26;;;;;;;1.65;1.23;;;;;;;;;;5074800;28;20240;-61
2023/03/30 10:59:08;;;;;;;1.25;1.15;;;;;;;;;;5074939;28;20588;-61
2023/03/30 11:01:38;;;;;;;1.20;1.10;;;;;;;;;;5074304;28;20744;-61
2023/03/30 11:04:11;;;;;;;1.23;1.15;;;;;;;;;;5073909;28;20224;-61
2023/03/30 11:06:40;;;;;;;1.60;1.20;;;;;;;;;;5073799;28;20204;-61
2023/03/30 11:09:11;;;;;;;1.60;1.27;;;;;;;;;;5074570;28;20211;-61
2023/03/30 11:11:40;;;;;;;1.40;1.30;;;;;;;;;;5074470;28;20201;-61
2023/03/30 11:14:09;;;;;;;1.27;1.17;;;;;;;;;;5075107;28;20196;-61
2023/03/30 11:16:40;;;;;;;1.55;1.10;;;;;;;;;;5074991;28;20212;-61
2023/03/30 11:19:13;;;;;;;1.33;1.23;;;;;;;;;;5074161;28;20196;-61
2023/03/30 11:21:43;;;;;;;1.67;1.15;;;;;;;;;;5075200;28;20568;-61
2023/03/30 11:24:12;;;;;;;1.58;1.30;;;;;;;;;;5075164;28;20224;-61
2023/03/30 11:26:42;;;;;;;1.67;1.20;;;;;;;;;;5073566;28;20208;-61
2023/03/30 11:29:17;;;;;;;1.92;1.17;;;;;;;;;;5074134;28;20197;-61
2023/03/30 11:31:49;;;;;;;1.30;1.10;;;;;;;;;;5074421;28;20208;-61
2023/03/30 11:34:22;;;;;;;1.42;1.30;;;;;;;;;;5074608;28;20205;-61
2023/03/30 11:36:55;;;;;;;1.50;1.40;;;;;;;;;;5074078;28;20201;-61
2023/03/30 11:39:25;;;;;;;1.58;1.40;;;;;;;;;;5073668;28;20200;-61
2023/03/30 11:41:55;;;;;;;1.70;1.25;;;;;;;;;;5072169;28;20203;-61
2023/03/30 11:44:22;;;;;;;1.70;1.20;;;;;;;;;;5073051;28;20197;-61
2023/03/30 11:46:54;;;;;;;1.10;1.00;;;;;;;;;;5073665;28;20201;-61
2023/03/30 11:49:30;;;;;;;1.35;1.20;;;;;;;;;;5073580;28;20207;-61
2023/03/30 11:52:04;;;;;;;1.75;1.48;;;;;;;;;;5073335;28;20204;-61
2023/03/30 11:54:43;;;;;;;1.83;1.20;;;;;;;;;;5074181;28;20203;-61
2023/03/30 11:57:16;;;;;;;1.40;1.30;;;;;;;;;;5073852;28;20239;-61
2023/03/30 11:59:47;;;;;;;1.45;1.33;;;;;;;;;;5074699;28;20208;-61
2023/03/30 12:02:22;;;;;;;1.85;1.55;;;;;;;;;;5073649;28;20200;-61
2023/03/30 12:04:52;;;;;;;1.20;1.10;;;;;;;;;;5074195;28;20207;-61
2023/03/30 12:07:27;;;;;;;1.70;1.48;;;;;;;;;;5073761;28;20207;-61
2023/03/30 12:09:55;;;;;;;1.63;1.40;;;;;;;;;;5074162;28;20200;-61
2023/03/30 12:12:27;;;;;;;1.35;1.25;;;;;;;;;;5073998;28;20216;-61
2023/03/30 12:15:01;;;;;;;1.63;1.20;;;;;;;;;;5073034;28;20196;-61
2023/03/30 12:17:32;;;;;;;1.55;1.45;;;;;;;;;;5073380;28;20195;-61
2023/03/30 12:20:04;;;;;;;1.35;1.23;;;;;;;;;;5073622;28;20254;-61
2023/03/30 12:22:35;;;;;;;1.30;1.20;;;;;;;;;;5072721;28;20260;-61
2023/03/30 12:25:06;;;;;;;1.30;1.20;;;;;;;;;;5071954;28;20203;-61
2023/03/30 12:27:35;;;;;;;1.40;1.30;;;;;;;;;;5073491;28;20204;-61
2023/03/30 12:30:12;;;;;;;1.77;1.23;;;;;;;;;;5073210;28;20200;-61
2023/03/30 12:32:57;;;;;;;1.50;1.40;;;;;;;;;;5072697;28;20196;-61
2023/03/30 12:35:42;;;;;;;1.15;1.05;;;;;;;;;;5073239;28;20204;-61
2023/03/30 12:38:15;;;;;;;1.40;1.30;;;;;;;;;;5073165;28;20204;-61
2023/03/30 12:40:46;;;;;;;1.42;1.33;;;;;;;;;;5074118;28;20205;-61
2023/03/30 12:43:19;;;;;;;1.48;1.30;;;;;;;;;;5073238;28;20228;-61
2023/03/30 12:46:00;;;;;;;1.38;1.27;;;;;;;;;;5078674;28;20208;-61
2023/03/30 12:48:32;;;;;;;1.17;1.08;;;;;;;;;;5080397;28;20265;-61
2023/03/30 12:51:04;;;;;;;1.58;1.20;;;;;;;;;;5080516;28;20704;-61
2023/03/30 12:53:41;;;;;;;1.30;1.20;;;;;;;;;;5079848;28;20211;-61
2023/03/30 12:56:14;;;;;;;1.50;1.40;;;;;;;;;;5079333;28;20228;-61
2023/03/30 12:58:51;;;;;;;1.15;1.05;;;;;;;;;;5079382;28;20311;-61
2023/03/30 13:01:26;;;;;;;1.63;1.30;;;;;;;;;;5079972;28;20200;-61
2023/03/30 13:03:54;;;;;;;2.05;1.40;;;;;;;;;;5078545;28;20696;-61
2023/03/30 13:06:24;;;;;;;1.20;1.10;;;;;;;;;;5079032;28;20265;-61
2023/03/30 13:08:56;;;;;;;1.40;1.30;;;;;;;;;;5079595;28;20291;-61
2023/03/30 13:11:24;;;;;;;1.42;1.30;;;;;;;;;;5079759;28;20235;-61
2023/03/30 13:13:53;;;;;;;1.38;1.27;;;;;;;;;;5079419;28;20200;-61
2023/03/30 13:16:39;;;;;;;1.25;1.10;;;;;;;;;;5079751;28;20214;-61
2023/03/30 13:19:14;;;;;;;2.10;1.33;;;;;;;;;;5080016;28;20204;-61
2023/03/30 13:21:47;;;;;;;1.75;1.33;;;;;;;;;;5080112;28;20210;-61
2023/03/30 13:24:36;;;;;;;1.45;1.35;;;;;;;;;;5078401;28;20642;-61
2023/03/30 13:27:22;;;;;;;1.52;1.20;;;;;;;;;;5077889;28;20211;-61
2023/03/30 13:29:50;;;;;;;1.23;1.13;;;;;;;;;;5078890;28;20215;-61
2023/03/30 13:32:20;;;;;;;1.30;1.20;;;;;;;;;;5078500;28;20207;-61
2023/03/30 13:34:58;;;;;;;1.30;1.20;;;;;;;;;;5079643;28;20192;-61
2023/03/30 13:37:28;;;;;;;2.13;1.40;;;;;;;;;;5078922;28;20207;-61
2023/03/30 13:40:01;;;;;;;2.28;1.15;;;;;;;;;;5079046;28;20211;-61
2023/03/30 13:42:41;;;;;;;1.35;1.20;;;;;;;;;;5079392;28;20297;-61
2023/03/30 13:45:14;;;;;;;1.50;1.40;;;;;;;;;;5079717;28;20537;-61
2023/03/30 13:47:48;;;;;;;2.30;1.50;;;;;;;;;;5078595;28;20214;-61
2023/03/30 13:50:20;;;;;;;1.42;1.33;;;;;;;;;;5078405;28;20214;-61
2023/03/30 13:52:49;;;;;;;1.48;1.38;;;;;;;;;;5078657;28;20551;-61
2023/03/30 13:55:19;;;;;;;1.42;1.20;;;;;;;;;;5078506;28;20297;-61
2023/03/30 13:57:46;;;;;;;1.42;1.25;;;;;;;;;;5075040;28;20667;-61
2023/03/30 14:00:31;;;;;;;1.45;1.30;;;;;;;;;;5076386;28;20212;-61
2023/03/30 14:02:59;;;;;;;1.70;1.50;;;;;;;;;;5076453;28;20208;-61
2023/03/30 14:05:27;;;;;;;1.38;1.10;;;;;;;;;;5076553;28;20247;-61
2023/03/30 14:07:57;;;;;;;1.40;1.30;;;;;;;;;;5075882;28;20210;-61
2023/03/30 14:10:26;;;;;;;1.58;1.40;;;;;;;;;;5073293;28;20204;-61
2023/03/30 14:12:55;;;;;;;1.58;1.48;;;;;;;;;;5074848;28;20204;-61
2023/03/30 14:15:23;;;;;;;2.38;1.30;;;;;;;;;;5076086;28;20200;-61
2023/03/30 14:17:52;;;;;;;1.58;1.30;;;;;;;;;;5075320;28;20205;-61
2023/03/30 14:20:25;;;;;;;1.58;1.40;;;;;;;;;;5075765;28;20205;-61
2023/03/30 14:22:54;;;;;;;1.60;1.50;;;;;;;;;;5074921;28;20396;-61
2023/03/30 14:25:23;;;;;;;1.58;1.48;;;;;;;;;;5074432;28;20530;-61
2023/03/30 14:27:52;;;;;;;1.80;1.50;;;;;;;;;;5074903;28;20204;-61
2023/03/30 14:30:20;;;;;;;2.92;1.40;;;;;;;;;;5074828;28;20208;-61
2023/03/30 14:32:47;;;;;;;1.75;1.50;;;;;;;;;;5074610;28;20215;-61
2023/03/30 14:35:17;;;;;;;1.40;1.30;;;;;;;;;;5074892;28;20608;-61
2023/03/30 14:37:44;;;;;;;1.77;1.40;;;;;;;;;;5075816;28;20208;-61
2023/03/30 14:40:15;;;;;;;1.60;1.35;;;;;;;;;;5076340;28;20375;-61
2023/03/30 14:42:43;;;;;;;1.52;1.35;;;;;;;;;;5075427;28;20208;-61
2023/03/30 14:45:16;;;;;;;1.83;1.55;;;;;;;;;;5075808;28;20229;-61
2023/03/30 14:47:44;;;;;;;1.52;1.30;;;;;;;;;;5075339;28;20204;-61
2023/03/30 14:50:14;;;;;;;1.50;1.40;;;;;;;;;;5074841;28;20204;-61
2023/03/30 14:52:43;;;;;;;1.50;1.40;;;;;;;;;;5075451;28;20204;-61
2023/03/30 14:55:12;;;;;;;1.50;1.40;;;;;;;;;;5075182;28;20216;-61
2023/03/30 14:57:40;;;;;;;1.83;1.60;;;;;;;;;;5073290;28;20235;-61
2023/03/30 15:00:17;;;;;;;1.70;1.42;;;;;;;;;;5074817;28;20299;-61